sensor_id;sensor_type;location;lat;lon;timestamp;P1;durP1;ratioP1;P2;durP2;ratioP2
22780;SDS011;11557;50.884;4.322;2023-04-22T00:01:37;31.23;;;26.85;;
22780;SDS011;11557;50.884;4.322;2023-04-22T00:04:03;35.58;;;27.85;;
22780;SDS011;11557;50.884;4.322;2023-04-22T00:06:29;34.35;;;27.33;;
22780;SDS011;11557;50.884;4.322;2023-04-22T00:08:56;31.27;;;26.73;;
22780;SDS011;11557;50.884;4.322;2023-04-22T00:11:21;33.25;;;27.23;;
22780;SDS011;11557;50.884;4.322;2023-04-22T00:13:47;34.17;;;29.05;;
22780;SDS011;11557;50.884;4.322;2023-04-22T00:16:13;31.70;;;28.13;;
22780;SDS011;11557;50.884;4.322;2023-04-22T00:18:39;34.65;;;29.23;;
22780;SDS011;11557;50.884;4.322;2023-04-22T00:21:05;36.75;;;29.77;;
22780;SDS011;11557;50.884;4.322;2023-04-22T00:23:32;32.90;;;27.98;;
22780;SDS011;11557;50.884;4.322;2023-04-22T00:25:57;33.83;;;28.35;;
22780;SDS011;11557;50.884;4.322;2023-04-22T00:28:24;34.40;;;28.35;;
22780;SDS011;11557;50.884;4.322;2023-04-22T00:30:50;34.15;;;28.00;;
22780;SDS011;11557;50.884;4.322;2023-04-22T00:33:16;35.72;;;28.92;;
22780;SDS011;11557;50.884;4.322;2023-04-22T00:35:42;33.63;;;29.23;;
22780;SDS011;11557;50.884;4.322;2023-04-22T00:38:10;33.78;;;29.27;;
22780;SDS011;11557;50.884;4.322;2023-04-22T00:40:36;33.55;;;29.55;;
22780;SDS011;11557;50.884;4.322;2023-04-22T00:43:02;34.50;;;29.20;;
22780;SDS011;11557;50.884;4.322;2023-04-22T00:45:27;34.05;;;29.55;;
22780;SDS011;11557;50.884;4.322;2023-04-22T00:47:55;35.50;;;29.17;;
22780;SDS011;11557;50.884;4.322;2023-04-22T00:50:21;34.60;;;30.55;;
22780;SDS011;11557;50.884;4.322;2023-04-22T00:52:47;36.80;;;30.83;;
22780;SDS011;11557;50.884;4.322;2023-04-22T00:55:12;37.25;;;30.58;;
22780;SDS011;11557;50.884;4.322;2023-04-22T00:57:39;34.95;;;30.02;;
22780;SDS011;11557;50.884;4.322;2023-04-22T01:00:05;37.20;;;31.65;;
22780;SDS011;11557;50.884;4.322;2023-04-22T01:02:31;36.63;;;32.28;;
22780;SDS011;11557;50.884;4.322;2023-04-22T01:04:57;38.72;;;30.83;;
22780;SDS011;11557;50.884;4.322;2023-04-22T01:07:23;35.60;;;31.10;;
22780;SDS011;11557;50.884;4.322;2023-04-22T01:09:49;36.05;;;31.65;;
22780;SDS011;11557;50.884;4.322;2023-04-22T01:12:15;36.35;;;30.85;;
22780;SDS011;11557;50.884;4.322;2023-04-22T01:14:41;37.75;;;32.47;;
22780;SDS011;11557;50.884;4.322;2023-04-22T01:17:08;33.70;;;29.52;;
22780;SDS011;11557;50.884;4.322;2023-04-22T01:19:34;39.42;;;33.15;;
22780;SDS011;11557;50.884;4.322;2023-04-22T01:22:01;39.10;;;31.38;;
22780;SDS011;11557;50.884;4.322;2023-04-22T01:24:27;36.97;;;30.95;;
22780;SDS011;11557;50.884;4.322;2023-04-22T01:26:53;36.75;;;30.23;;
22780;SDS011;11557;50.884;4.322;2023-04-22T01:29:19;36.28;;;30.67;;
22780;SDS011;11557;50.884;4.322;2023-04-22T01:31:45;33.60;;;29.00;;
22780;SDS011;11557;50.884;4.322;2023-04-22T01:34:12;33.75;;;30.05;;
22780;SDS011;11557;50.884;4.322;2023-04-22T01:36:37;39.63;;;30.55;;
22780;SDS011;11557;50.884;4.322;2023-04-22T01:39:03;39.05;;;31.42;;
22780;SDS011;11557;50.884;4.322;2023-04-22T01:41:29;34.45;;;30.50;;
22780;SDS011;11557;50.884;4.322;2023-04-22T01:43:56;38.08;;;31.50;;
22780;SDS011;11557;50.884;4.322;2023-04-22T01:46:24;38.55;;;33.30;;
22780;SDS011;11557;50.884;4.322;2023-04-22T01:48:50;37.67;;;32.30;;
22780;SDS011;11557;50.884;4.322;2023-04-22T01:51:16;39.00;;;32.42;;
22780;SDS011;11557;50.884;4.322;2023-04-22T01:53:44;38.30;;;33.22;;
22780;SDS011;11557;50.884;4.322;2023-04-22T01:56:11;40.88;;;31.92;;
22780;SDS011;11557;50.884;4.322;2023-04-22T01:58:37;40.10;;;33.03;;
22780;SDS011;11557;50.884;4.322;2023-04-22T02:01:04;36.20;;;31.80;;
22780;SDS011;11557;50.884;4.322;2023-04-22T02:03:34;36.05;;;30.70;;
22780;SDS011;11557;50.884;4.322;2023-04-22T02:06:00;37.72;;;30.35;;
22780;SDS011;11557;50.884;4.322;2023-04-22T02:08:26;36.50;;;29.55;;
22780;SDS011;11557;50.884;4.322;2023-04-22T02:10:51;34.65;;;29.58;;
22780;SDS011;11557;50.884;4.322;2023-04-22T02:13:17;35.63;;;29.63;;
22780;SDS011;11557;50.884;4.322;2023-04-22T02:15:43;35.13;;;29.67;;
22780;SDS011;11557;50.884;4.322;2023-04-22T02:18:08;35.00;;;29.27;;
22780;SDS011;11557;50.884;4.322;2023-04-22T02:20:35;36.33;;;30.30;;
22780;SDS011;11557;50.884;4.322;2023-04-22T02:23:01;35.47;;;30.35;;
22780;SDS011;11557;50.884;4.322;2023-04-22T02:25:28;35.60;;;30.60;;
22780;SDS011;11557;50.884;4.322;2023-04-22T02:27:54;37.28;;;32.08;;
22780;SDS011;11557;50.884;4.322;2023-04-22T02:30:20;35.63;;;30.92;;
22780;SDS011;11557;50.884;4.322;2023-04-22T02:32:46;34.75;;;30.08;;
22780;SDS011;11557;50.884;4.322;2023-04-22T02:35:12;35.35;;;30.70;;
22780;SDS011;11557;50.884;4.322;2023-04-22T02:37:38;36.03;;;30.80;;
22780;SDS011;11557;50.884;4.322;2023-04-22T02:40:04;35.70;;;30.85;;
22780;SDS011;11557;50.884;4.322;2023-04-22T02:42:31;36.67;;;30.90;;
22780;SDS011;11557;50.884;4.322;2023-04-22T02:44:57;37.80;;;31.42;;
22780;SDS011;11557;50.884;4.322;2023-04-22T02:47:23;40.65;;;33.15;;
22780;SDS011;11557;50.884;4.322;2023-04-22T02:49:49;41.63;;;33.38;;
22780;SDS011;11557;50.884;4.322;2023-04-22T02:52:15;41.35;;;32.95;;
22780;SDS011;11557;50.884;4.322;2023-04-22T02:54:41;38.97;;;33.08;;
22780;SDS011;11557;50.884;4.322;2023-04-22T02:57:06;42.85;;;33.97;;
22780;SDS011;11557;50.884;4.322;2023-04-22T02:59:33;40.10;;;34.40;;
22780;SDS011;11557;50.884;4.322;2023-04-22T03:02:01;40.40;;;33.13;;
22780;SDS011;11557;50.884;4.322;2023-04-22T03:04:26;43.05;;;35.30;;
22780;SDS011;11557;50.884;4.322;2023-04-22T03:06:52;40.42;;;33.90;;
22780;SDS011;11557;50.884;4.322;2023-04-22T03:09:18;41.05;;;34.30;;
22780;SDS011;11557;50.884;4.322;2023-04-22T03:11:44;41.60;;;35.17;;
22780;SDS011;11557;50.884;4.322;2023-04-22T03:14:10;41.13;;;33.65;;
22780;SDS011;11557;50.884;4.322;2023-04-22T03:16:35;43.65;;;33.05;;
22780;SDS011;11557;50.884;4.322;2023-04-22T03:19:01;42.42;;;34.40;;
22780;SDS011;11557;50.884;4.322;2023-04-22T03:21:27;37.58;;;32.35;;
22780;SDS011;11557;50.884;4.322;2023-04-22T03:23:52;40.75;;;33.50;;
22780;SDS011;11557;50.884;4.322;2023-04-22T03:26:18;41.55;;;34.50;;
22780;SDS011;11557;50.884;4.322;2023-04-22T03:28:44;42.53;;;33.92;;
22780;SDS011;11557;50.884;4.322;2023-04-22T03:31:10;38.08;;;33.10;;
22780;SDS011;11557;50.884;4.322;2023-04-22T03:33:36;39.33;;;33.67;;
22780;SDS011;11557;50.884;4.322;2023-04-22T03:36:03;40.30;;;34.03;;
22780;SDS011;11557;50.884;4.322;2023-04-22T03:38:29;42.17;;;34.72;;
22780;SDS011;11557;50.884;4.322;2023-04-22T03:40:55;42.88;;;34.47;;
22780;SDS011;11557;50.884;4.322;2023-04-22T03:43:20;39.58;;;33.22;;
22780;SDS011;11557;50.884;4.322;2023-04-22T03:45:46;38.92;;;33.05;;
22780;SDS011;11557;50.884;4.322;2023-04-22T03:48:11;39.05;;;32.88;;
22780;SDS011;11557;50.884;4.322;2023-04-22T03:50:37;36.10;;;32.13;;
22780;SDS011;11557;50.884;4.322;2023-04-22T03:53:03;39.80;;;32.13;;
22780;SDS011;11557;50.884;4.322;2023-04-22T03:55:28;48.00;;;33.30;;
22780;SDS011;11557;50.884;4.322;2023-04-22T03:57:54;44.55;;;34.90;;
22780;SDS011;11557;50.884;4.322;2023-04-22T04:00:20;39.80;;;33.15;;
22780;SDS011;11557;50.884;4.322;2023-04-22T04:02:46;39.97;;;33.38;;
22780;SDS011;11557;50.884;4.322;2023-04-22T04:05:12;38.60;;;32.55;;
22780;SDS011;11557;50.884;4.322;2023-04-22T04:07:37;44.65;;;32.33;;
22780;SDS011;11557;50.884;4.322;2023-04-22T04:10:03;39.60;;;32.72;;
22780;SDS011;11557;50.884;4.322;2023-04-22T04:12:30;39.22;;;31.67;;
22780;SDS011;11557;50.884;4.322;2023-04-22T04:14:56;38.92;;;32.38;;
22780;SDS011;11557;50.884;4.322;2023-04-22T04:17:21;40.13;;;32.15;;
22780;SDS011;11557;50.884;4.322;2023-04-22T04:19:52;40.30;;;32.75;;
22780;SDS011;11557;50.884;4.322;2023-04-22T04:22:19;37.50;;;31.95;;
22780;SDS011;11557;50.884;4.322;2023-04-22T04:24:45;40.17;;;31.27;;
22780;SDS011;11557;50.884;4.322;2023-04-22T04:27:11;37.88;;;32.05;;
22780;SDS011;11557;50.884;4.322;2023-04-22T04:29:37;35.17;;;30.48;;
22780;SDS011;11557;50.884;4.322;2023-04-22T04:32:05;38.78;;;32.10;;
22780;SDS011;11557;50.884;4.322;2023-04-22T04:34:32;40.65;;;32.25;;
22780;SDS011;11557;50.884;4.322;2023-04-22T04:36:58;39.55;;;31.25;;
22780;SDS011;11557;50.884;4.322;2023-04-22T04:39:25;40.90;;;30.75;;
22780;SDS011;11557;50.884;4.322;2023-04-22T04:41:52;36.55;;;29.40;;
22780;SDS011;11557;50.884;4.322;2023-04-22T04:44:19;38.35;;;31.20;;
22780;SDS011;11557;50.884;4.322;2023-04-22T04:46:45;42.05;;;32.08;;
22780;SDS011;11557;50.884;4.322;2023-04-22T04:49:12;40.83;;;32.47;;
22780;SDS011;11557;50.884;4.322;2023-04-22T04:51:38;37.55;;;31.55;;
22780;SDS011;11557;50.884;4.322;2023-04-22T04:54:04;39.15;;;31.15;;
22780;SDS011;11557;50.884;4.322;2023-04-22T04:56:30;37.65;;;30.88;;
22780;SDS011;11557;50.884;4.322;2023-04-22T04:58:56;43.08;;;31.98;;
22780;SDS011;11557;50.884;4.322;2023-04-22T05:01:22;41.28;;;31.55;;
22780;SDS011;11557;50.884;4.322;2023-04-22T05:03:48;36.47;;;30.85;;
22780;SDS011;11557;50.884;4.322;2023-04-22T05:06:13;38.70;;;31.05;;
22780;SDS011;11557;50.884;4.322;2023-04-22T05:08:40;39.70;;;30.40;;
22780;SDS011;11557;50.884;4.322;2023-04-22T05:11:06;43.00;;;31.45;;
22780;SDS011;11557;50.884;4.322;2023-04-22T05:13:32;40.95;;;32.80;;
22780;SDS011;11557;50.884;4.322;2023-04-22T05:15:58;40.08;;;32.35;;
22780;SDS011;11557;50.884;4.322;2023-04-22T05:18:24;43.50;;;33.53;;
22780;SDS011;11557;50.884;4.322;2023-04-22T05:20:49;38.88;;;31.63;;
22780;SDS011;11557;50.884;4.322;2023-04-22T05:23:15;38.22;;;29.77;;
22780;SDS011;11557;50.884;4.322;2023-04-22T05:25:41;37.60;;;32.03;;
22780;SDS011;11557;50.884;4.322;2023-04-22T05:28:07;41.53;;;33.08;;
22780;SDS011;11557;50.884;4.322;2023-04-22T05:30:33;47.83;;;33.83;;
22780;SDS011;11557;50.884;4.322;2023-04-22T05:32:59;41.30;;;32.33;;
22780;SDS011;11557;50.884;4.322;2023-04-22T05:35:25;40.75;;;32.40;;
22780;SDS011;11557;50.884;4.322;2023-04-22T05:37:51;37.42;;;31.92;;
22780;SDS011;11557;50.884;4.322;2023-04-22T05:40:17;41.17;;;32.80;;
22780;SDS011;11557;50.884;4.322;2023-04-22T05:42:42;40.42;;;32.20;;
22780;SDS011;11557;50.884;4.322;2023-04-22T05:45:08;40.72;;;33.30;;
22780;SDS011;11557;50.884;4.322;2023-04-22T05:47:34;40.75;;;33.50;;
22780;SDS011;11557;50.884;4.322;2023-04-22T05:50:00;40.30;;;32.17;;
22780;SDS011;11557;50.884;4.322;2023-04-22T05:52:26;39.50;;;33.33;;
22780;SDS011;11557;50.884;4.322;2023-04-22T05:54:52;39.53;;;33.65;;
22780;SDS011;11557;50.884;4.322;2023-04-22T05:57:17;40.47;;;33.28;;
22780;SDS011;11557;50.884;4.322;2023-04-22T05:59:43;39.92;;;33.35;;
22780;SDS011;11557;50.884;4.322;2023-04-22T06:02:10;42.05;;;32.70;;
22780;SDS011;11557;50.884;4.322;2023-04-22T06:04:36;37.50;;;31.50;;
22780;SDS011;11557;50.884;4.322;2023-04-22T06:07:01;40.78;;;33.03;;
22780;SDS011;11557;50.884;4.322;2023-04-22T06:09:27;37.72;;;32.47;;
22780;SDS011;11557;50.884;4.322;2023-04-22T06:11:53;39.63;;;31.70;;
22780;SDS011;11557;50.884;4.322;2023-04-22T06:14:18;38.83;;;32.03;;
22780;SDS011;11557;50.884;4.322;2023-04-22T06:16:44;39.67;;;32.97;;
22780;SDS011;11557;50.884;4.322;2023-04-22T06:19:09;38.13;;;32.00;;
22780;SDS011;11557;50.884;4.322;2023-04-22T06:21:35;42.75;;;32.45;;
22780;SDS011;11557;50.884;4.322;2023-04-22T06:24:04;45.08;;;34.50;;
22780;SDS011;11557;50.884;4.322;2023-04-22T06:26:30;40.47;;;33.58;;
22780;SDS011;11557;50.884;4.322;2023-04-22T06:28:56;39.17;;;33.58;;
22780;SDS011;11557;50.884;4.322;2023-04-22T06:31:22;41.80;;;32.88;;
22780;SDS011;11557;50.884;4.322;2023-04-22T06:33:47;41.30;;;34.13;;
22780;SDS011;11557;50.884;4.322;2023-04-22T06:36:13;42.38;;;35.42;;
22780;SDS011;11557;50.884;4.322;2023-04-22T06:38:39;42.03;;;34.88;;
22780;SDS011;11557;50.884;4.322;2023-04-22T06:41:04;42.47;;;34.63;;
22780;SDS011;11557;50.884;4.322;2023-04-22T06:43:30;40.08;;;33.42;;
22780;SDS011;11557;50.884;4.322;2023-04-22T06:45:56;46.55;;;34.45;;
22780;SDS011;11557;50.884;4.322;2023-04-22T06:48:21;43.00;;;34.22;;
22780;SDS011;11557;50.884;4.322;2023-04-22T06:50:48;41.67;;;34.03;;
22780;SDS011;11557;50.884;4.322;2023-04-22T06:53:14;44.08;;;34.88;;
22780;SDS011;11557;50.884;4.322;2023-04-22T06:55:40;41.10;;;34.15;;
22780;SDS011;11557;50.884;4.322;2023-04-22T06:58:06;43.05;;;34.92;;
22780;SDS011;11557;50.884;4.322;2023-04-22T07:00:32;45.53;;;34.05;;
22780;SDS011;11557;50.884;4.322;2023-04-22T07:02:57;41.95;;;33.95;;
22780;SDS011;11557;50.884;4.322;2023-04-22T07:05:23;45.22;;;35.47;;
22780;SDS011;11557;50.884;4.322;2023-04-22T07:07:49;43.03;;;34.08;;
22780;SDS011;11557;50.884;4.322;2023-04-22T07:10:15;44.70;;;34.92;;
22780;SDS011;11557;50.884;4.322;2023-04-22T07:12:41;40.13;;;33.58;;
22780;SDS011;11557;50.884;4.322;2023-04-22T07:15:07;40.65;;;34.22;;
22780;SDS011;11557;50.884;4.322;2023-04-22T07:17:33;41.45;;;33.05;;
22780;SDS011;11557;50.884;4.322;2023-04-22T07:19:58;38.60;;;33.13;;
22780;SDS011;11557;50.884;4.322;2023-04-22T07:22:24;38.80;;;33.03;;
22780;SDS011;11557;50.884;4.322;2023-04-22T07:24:50;39.28;;;32.63;;
22780;SDS011;11557;50.884;4.322;2023-04-22T07:27:16;37.33;;;31.15;;
22780;SDS011;11557;50.884;4.322;2023-04-22T07:29:42;38.55;;;31.25;;
22780;SDS011;11557;50.884;4.322;2023-04-22T07:32:08;41.17;;;31.88;;
22780;SDS011;11557;50.884;4.322;2023-04-22T07:34:33;38.22;;;31.20;;
22780;SDS011;11557;50.884;4.322;2023-04-22T07:36:59;39.28;;;31.10;;
22780;SDS011;11557;50.884;4.322;2023-04-22T07:39:25;35.45;;;31.55;;
22780;SDS011;11557;50.884;4.322;2023-04-22T07:41:51;38.67;;;31.50;;
22780;SDS011;11557;50.884;4.322;2023-04-22T07:44:17;37.25;;;31.10;;
22780;SDS011;11557;50.884;4.322;2023-04-22T07:46:45;36.80;;;28.95;;
22780;SDS011;11557;50.884;4.322;2023-04-22T07:49:12;39.42;;;32.17;;
22780;SDS011;11557;50.884;4.322;2023-04-22T07:51:44;40.22;;;31.80;;
22780;SDS011;11557;50.884;4.322;2023-04-22T07:54:10;38.65;;;31.77;;
22780;SDS011;11557;50.884;4.322;2023-04-22T07:56:36;34.45;;;30.30;;
22780;SDS011;11557;50.884;4.322;2023-04-22T07:59:02;35.20;;;30.60;;
22780;SDS011;11557;50.884;4.322;2023-04-22T08:01:28;34.38;;;29.65;;
22780;SDS011;11557;50.884;4.322;2023-04-22T08:03:53;31.65;;;28.25;;
22780;SDS011;11557;50.884;4.322;2023-04-22T08:06:19;33.97;;;30.02;;
22780;SDS011;11557;50.884;4.322;2023-04-22T08:08:45;31.30;;;26.08;;
22780;SDS011;11557;50.884;4.322;2023-04-22T08:11:10;28.45;;;25.15;;
22780;SDS011;11557;50.884;4.322;2023-04-22T08:13:36;27.40;;;23.85;;
22780;SDS011;11557;50.884;4.322;2023-04-22T08:16:02;29.70;;;23.35;;
22780;SDS011;11557;50.884;4.322;2023-04-22T08:18:28;28.50;;;22.02;;
22780;SDS011;11557;50.884;4.322;2023-04-22T08:20:54;25.40;;;21.33;;
22780;SDS011;11557;50.884;4.322;2023-04-22T08:23:20;23.70;;;21.17;;
22780;SDS011;11557;50.884;4.322;2023-04-22T08:25:49;28.52;;;22.70;;
22780;SDS011;11557;50.884;4.322;2023-04-22T08:28:15;26.10;;;20.35;;
22780;SDS011;11557;50.884;4.322;2023-04-22T08:30:41;21.23;;;18.90;;
22780;SDS011;11557;50.884;4.322;2023-04-22T08:33:07;22.40;;;19.13;;
22780;SDS011;11557;50.884;4.322;2023-04-22T08:35:33;20.45;;;18.08;;
22780;SDS011;11557;50.884;4.322;2023-04-22T08:38:00;20.95;;;18.15;;
22780;SDS011;11557;50.884;4.322;2023-04-22T08:40:26;19.08;;;17.13;;
22780;SDS011;11557;50.884;4.322;2023-04-22T08:42:52;18.90;;;16.92;;
22780;SDS011;11557;50.884;4.322;2023-04-22T08:45:20;19.10;;;17.10;;
22780;SDS011;11557;50.884;4.322;2023-04-22T08:47:46;19.88;;;16.83;;
22780;SDS011;11557;50.884;4.322;2023-04-22T08:50:13;21.90;;;15.45;;
22780;SDS011;11557;50.884;4.322;2023-04-22T08:52:42;22.13;;;14.70;;
22780;SDS011;11557;50.884;4.322;2023-04-22T08:55:08;16.92;;;15.07;;
22780;SDS011;11557;50.884;4.322;2023-04-22T08:57:35;16.25;;;13.88;;
22780;SDS011;11557;50.884;4.322;2023-04-22T09:00:02;19.75;;;14.48;;
22780;SDS011;11557;50.884;4.322;2023-04-22T09:02:30;20.20;;;15.40;;
22780;SDS011;11557;50.884;4.322;2023-04-22T09:04:57;19.92;;;13.90;;
22780;SDS011;11557;50.884;4.322;2023-04-22T09:07:26;18.35;;;14.82;;
22780;SDS011;11557;50.884;4.322;2023-04-22T09:09:54;18.38;;;15.00;;
22780;SDS011;11557;50.884;4.322;2023-04-22T09:12:20;18.70;;;16.13;;
22780;SDS011;11557;50.884;4.322;2023-04-22T09:14:46;15.40;;;12.77;;
22780;SDS011;11557;50.884;4.322;2023-04-22T09:17:15;24.35;;;14.27;;
22780;SDS011;11557;50.884;4.322;2023-04-22T09:19:43;16.35;;;12.60;;
22780;SDS011;11557;50.884;4.322;2023-04-22T09:22:12;14.57;;;12.75;;
22780;SDS011;11557;50.884;4.322;2023-04-22T09:24:43;13.65;;;12.23;;
22780;SDS011;11557;50.884;4.322;2023-04-22T09:27:18;14.00;;;12.45;;
22780;SDS011;11557;50.884;4.322;2023-04-22T09:29:47;14.70;;;12.35;;
22780;SDS011;11557;50.884;4.322;2023-04-22T09:32:14;13.75;;;12.18;;
22780;SDS011;11557;50.884;4.322;2023-04-22T09:34:51;15.70;;;13.70;;
22780;SDS011;11557;50.884;4.322;2023-04-22T09:37:24;15.68;;;12.65;;
22780;SDS011;11557;50.884;4.322;2023-04-22T09:39:50;17.05;;;13.30;;
22780;SDS011;11557;50.884;4.322;2023-04-22T09:42:17;17.50;;;13.77;;
22780;SDS011;11557;50.884;4.322;2023-04-22T09:44:44;15.35;;;12.55;;
22780;SDS011;11557;50.884;4.322;2023-04-22T09:47:11;14.05;;;11.80;;
22780;SDS011;11557;50.884;4.322;2023-04-22T09:49:37;14.23;;;12.80;;
22780;SDS011;11557;50.884;4.322;2023-04-22T09:52:03;15.70;;;13.48;;
22780;SDS011;11557;50.884;4.322;2023-04-22T09:54:30;14.77;;;13.27;;
22780;SDS011;11557;50.884;4.322;2023-04-22T09:56:56;15.98;;;14.40;;
22780;SDS011;11557;50.884;4.322;2023-04-22T09:59:24;18.20;;;15.43;;
22780;SDS011;11557;50.884;4.322;2023-04-22T10:01:52;17.15;;;15.00;;
22780;SDS011;11557;50.884;4.322;2023-04-22T10:04:20;17.17;;;15.38;;
22780;SDS011;11557;50.884;4.322;2023-04-22T10:06:50;19.90;;;16.83;;
22780;SDS011;11557;50.884;4.322;2023-04-22T10:09:17;19.55;;;17.00;;
22780;SDS011;11557;50.884;4.322;2023-04-22T10:11:45;21.42;;;16.77;;
22780;SDS011;11557;50.884;4.322;2023-04-22T10:14:12;21.45;;;17.70;;
22780;SDS011;11557;50.884;4.322;2023-04-22T10:16:38;20.58;;;18.00;;
22780;SDS011;11557;50.884;4.322;2023-04-22T10:19:08;21.98;;;18.17;;
22780;SDS011;11557;50.884;4.322;2023-04-22T10:21:37;30.05;;;25.65;;
22780;SDS011;11557;50.884;4.322;2023-04-22T10:24:05;23.63;;;20.38;;
22780;SDS011;11557;50.884;4.322;2023-04-22T10:26:41;27.92;;;22.42;;
22780;SDS011;11557;50.884;4.322;2023-04-22T10:29:08;27.65;;;20.77;;
22780;SDS011;11557;50.884;4.322;2023-04-22T10:31:41;23.63;;;21.10;;
22780;SDS011;11557;50.884;4.322;2023-04-22T10:34:12;26.63;;;20.90;;
22780;SDS011;11557;50.884;4.322;2023-04-22T10:36:55;23.90;;;21.05;;
22780;SDS011;11557;50.884;4.322;2023-04-22T10:41:51;27.00;;;21.13;;
22780;SDS011;11557;50.884;4.322;2023-04-22T10:44:18;32.63;;;23.98;;
22780;SDS011;11557;50.884;4.322;2023-04-22T10:51:49;33.67;;;24.48;;
22780;SDS011;11557;50.884;4.322;2023-04-22T10:59:26;26.50;;;22.10;;
22780;SDS011;11557;50.884;4.322;2023-04-22T11:01:52;27.48;;;22.83;;
22780;SDS011;11557;50.884;4.322;2023-04-22T11:04:18;24.33;;;21.73;;
22780;SDS011;11557;50.884;4.322;2023-04-22T11:10:07;24.90;;;22.23;;
22780;SDS011;11557;50.884;4.322;2023-04-22T11:17:43;26.60;;;22.33;;
22780;SDS011;11557;50.884;4.322;2023-04-22T11:20:11;25.27;;;22.67;;
22780;SDS011;11557;50.884;4.322;2023-04-22T11:22:42;28.30;;;24.77;;
22780;SDS011;11557;50.884;4.322;2023-04-22T11:25:10;28.98;;;23.67;;
22780;SDS011;11557;50.884;4.322;2023-04-22T11:27:37;32.55;;;25.08;;
22780;SDS011;11557;50.884;4.322;2023-04-22T11:30:11;35.72;;;25.95;;
22780;SDS011;11557;50.884;4.322;2023-04-22T11:32:39;28.00;;;24.75;;
22780;SDS011;11557;50.884;4.322;2023-04-22T11:35:07;29.25;;;25.15;;
22780;SDS011;11557;50.884;4.322;2023-04-22T11:40:19;33.97;;;27.73;;
22780;SDS011;11557;50.884;4.322;2023-04-22T11:42:46;38.45;;;30.75;;
22780;SDS011;11557;50.884;4.322;2023-04-22T11:45:13;43.05;;;32.75;;
22780;SDS011;11557;50.884;4.322;2023-04-22T11:47:39;41.22;;;31.40;;
22780;SDS011;11557;50.884;4.322;2023-04-22T11:50:06;42.28;;;31.90;;
22780;SDS011;11557;50.884;4.322;2023-04-22T11:52:41;35.67;;;31.05;;
22780;SDS011;11557;50.884;4.322;2023-04-22T11:55:12;36.97;;;31.15;;
22780;SDS011;11557;50.884;4.322;2023-04-22T11:57:44;41.25;;;30.25;;
22780;SDS011;11557;50.884;4.322;2023-04-22T12:00:11;37.08;;;30.25;;
22780;SDS011;11557;50.884;4.322;2023-04-22T12:02:39;39.78;;;31.33;;
22780;SDS011;11557;50.884;4.322;2023-04-22T12:05:08;35.42;;;29.83;;
22780;SDS011;11557;50.884;4.322;2023-04-22T12:07:36;36.35;;;29.67;;
22780;SDS011;11557;50.884;4.322;2023-04-22T12:10:03;36.67;;;30.30;;
22780;SDS011;11557;50.884;4.322;2023-04-22T12:12:31;38.47;;;31.08;;
22780;SDS011;11557;50.884;4.322;2023-04-22T12:15:05;38.97;;;30.80;;
22780;SDS011;11557;50.884;4.322;2023-04-22T12:17:35;38.08;;;29.50;;
22780;SDS011;11557;50.884;4.322;2023-04-22T12:20:00;37.65;;;30.63;;
22780;SDS011;11557;50.884;4.322;2023-04-22T12:22:28;38.47;;;31.00;;
22780;SDS011;11557;50.884;4.322;2023-04-22T12:24:57;40.47;;;32.20;;
22780;SDS011;11557;50.884;4.322;2023-04-22T12:27:24;42.30;;;33.45;;
22780;SDS011;11557;50.884;4.322;2023-04-22T12:29:50;47.47;;;35.63;;
22780;SDS011;11557;50.884;4.322;2023-04-22T12:32:20;43.88;;;34.08;;
22780;SDS011;11557;50.884;4.322;2023-04-22T12:34:48;43.95;;;35.17;;
22780;SDS011;11557;50.884;4.322;2023-04-22T12:37:14;44.40;;;34.05;;
22780;SDS011;11557;50.884;4.322;2023-04-22T12:39:40;44.95;;;35.97;;
22780;SDS011;11557;50.884;4.322;2023-04-22T12:42:06;39.65;;;34.78;;
22780;SDS011;11557;50.884;4.322;2023-04-22T12:44:32;42.38;;;35.25;;
22780;SDS011;11557;50.884;4.322;2023-04-22T12:46:58;43.28;;;34.05;;
22780;SDS011;11557;50.884;4.322;2023-04-22T12:49:24;38.67;;;32.47;;
22780;SDS011;11557;50.884;4.322;2023-04-22T12:51:50;38.38;;;32.38;;
22780;SDS011;11557;50.884;4.322;2023-04-22T12:54:17;38.47;;;32.05;;
22780;SDS011;11557;50.884;4.322;2023-04-22T12:56:44;40.00;;;32.15;;
22780;SDS011;11557;50.884;4.322;2023-04-22T12:59:10;39.75;;;31.92;;
22780;SDS011;11557;50.884;4.322;2023-04-22T13:01:36;43.08;;;34.35;;
22780;SDS011;11557;50.884;4.322;2023-04-22T13:04:03;38.17;;;31.05;;
22780;SDS011;11557;50.884;4.322;2023-04-22T13:06:29;38.65;;;30.98;;
22780;SDS011;11557;50.884;4.322;2023-04-22T13:08:56;36.35;;;30.85;;
22780;SDS011;11557;50.884;4.322;2023-04-22T13:11:22;42.00;;;34.08;;
22780;SDS011;11557;50.884;4.322;2023-04-22T13:13:49;42.35;;;34.78;;
22780;SDS011;11557;50.884;4.322;2023-04-22T13:16:15;39.95;;;34.00;;
22780;SDS011;11557;50.884;4.322;2023-04-22T13:18:41;40.50;;;33.25;;
22780;SDS011;11557;50.884;4.322;2023-04-22T13:21:07;41.45;;;35.03;;
22780;SDS011;11557;50.884;4.322;2023-04-22T13:23:33;54.50;;;41.25;;
22780;SDS011;11557;50.884;4.322;2023-04-22T13:25:59;46.20;;;36.78;;
22780;SDS011;11557;50.884;4.322;2023-04-22T13:28:25;43.88;;;37.30;;
22780;SDS011;11557;50.884;4.322;2023-04-22T13:30:51;47.90;;;37.72;;
22780;SDS011;11557;50.884;4.322;2023-04-22T13:33:18;43.53;;;37.17;;
22780;SDS011;11557;50.884;4.322;2023-04-22T13:35:44;44.67;;;37.80;;
22780;SDS011;11557;50.884;4.322;2023-04-22T13:38:10;47.92;;;39.30;;
22780;SDS011;11557;50.884;4.322;2023-04-22T13:40:35;47.35;;;39.55;;
22780;SDS011;11557;50.884;4.322;2023-04-22T13:43:01;46.63;;;39.25;;
22780;SDS011;11557;50.884;4.322;2023-04-22T13:45:27;46.92;;;39.33;;
22780;SDS011;11557;50.884;4.322;2023-04-22T13:47:53;52.25;;;40.58;;
22780;SDS011;11557;50.884;4.322;2023-04-22T13:50:19;44.65;;;38.95;;
22780;SDS011;11557;50.884;4.322;2023-04-22T13:52:45;48.75;;;39.55;;
22780;SDS011;11557;50.884;4.322;2023-04-22T13:55:11;45.47;;;39.60;;
22780;SDS011;11557;50.884;4.322;2023-04-22T13:57:38;48.63;;;38.85;;
22780;SDS011;11557;50.884;4.322;2023-04-22T14:00:04;45.13;;;38.45;;
22780;SDS011;11557;50.884;4.322;2023-04-22T14:02:30;47.42;;;39.25;;
22780;SDS011;11557;50.884;4.322;2023-04-22T14:04:56;48.28;;;39.55;;
22780;SDS011;11557;50.884;4.322;2023-04-22T14:07:22;41.67;;;35.53;;
22780;SDS011;11557;50.884;4.322;2023-04-22T14:09:48;42.13;;;34.85;;
22780;SDS011;11557;50.884;4.322;2023-04-22T14:12:14;40.78;;;34.58;;
22780;SDS011;11557;50.884;4.322;2023-04-22T14:14:40;37.45;;;33.15;;
22780;SDS011;11557;50.884;4.322;2023-04-22T14:17:06;41.22;;;33.35;;
22780;SDS011;11557;50.884;4.322;2023-04-22T14:19:32;35.45;;;31.60;;
22780;SDS011;11557;50.884;4.322;2023-04-22T14:22:00;37.78;;;31.05;;
22780;SDS011;11557;50.884;4.322;2023-04-22T14:24:26;34.80;;;30.33;;
22780;SDS011;11557;50.884;4.322;2023-04-22T14:26:52;35.05;;;31.08;;
22780;SDS011;11557;50.884;4.322;2023-04-22T14:29:18;37.97;;;30.95;;
22780;SDS011;11557;50.884;4.322;2023-04-22T14:31:44;37.33;;;32.10;;
22780;SDS011;11557;50.884;4.322;2023-04-22T14:34:10;37.92;;;32.13;;
22780;SDS011;11557;50.884;4.322;2023-04-22T14:36:36;41.60;;;33.15;;
22780;SDS011;11557;50.884;4.322;2023-04-22T14:39:01;42.22;;;33.95;;
22780;SDS011;11557;50.884;4.322;2023-04-22T14:41:27;45.47;;;33.90;;